createdAt,value
2022-08-05T00:00:33.153Z,87.10
2022-08-05T00:03:00.730Z,86.28
2022-08-05T00:06:06.633Z,85.75
2022-08-05T00:08:32.996Z,86.17
2022-08-05T00:11:04.200Z,86.53
2022-08-05T00:13:38.431Z,87.98
2022-08-05T00:16:12.142Z,89.27
2022-08-05T00:18:44.191Z,91.46
2022-08-05T00:21:12.290Z,90.84
2022-08-05T00:23:46.452Z,92.38
2022-08-05T00:26:22.025Z,91.48
2022-08-05T00:28:50.051Z,91.30
2022-08-05T00:31:54.113Z,90.52
2022-08-05T00:34:55.706Z,89.29
2022-08-05T00:37:10.377Z,89.74
2022-08-05T00:39:41.587Z,91.49
2022-08-05T00:42:34.005Z,90.77
2022-08-05T00:45:01.942Z,92.14
2022-08-05T00:47:31.747Z,91.88
2022-08-05T00:50:16.572Z,91.45
2022-08-05T00:52:45.491Z,92.62
2022-08-05T00:55:14.046Z,94.01
2022-08-05T00:57:58.310Z,94.31
2022-08-05T01:00:30.914Z,94.59
2022-08-05T01:02:59.830Z,93.24
2022-08-05T01:05:28.007Z,89.55
2022-08-05T01:08:41.598Z,89.23
2022-08-05T01:10:57.877Z,88.52
2022-08-05T01:13:57.983Z,88.02
2022-08-05T01:16:52.350Z,90.55
2022-08-05T01:19:46.378Z,92.19
2022-08-05T01:22:32.051Z,91.63
2022-08-05T01:25:19.878Z,93.88
2022-08-05T01:28:00.508Z,92.21
2022-08-05T01:30:34.183Z,90.51
2022-08-05T01:33:08.621Z,90.84
2022-08-05T01:35:52.238Z,91.88
2022-08-05T01:38:27.074Z,91.74
2022-08-05T01:41:01.662Z,91.80
2022-08-05T01:43:31.302Z,91.82
2022-08-05T01:46:07.493Z,92.47
2022-08-05T01:48:45.959Z,92.76
2022-08-05T01:51:18.900Z,92.72
2022-08-05T01:53:57.303Z,91.38
2022-08-05T01:58:11.650Z,89.38
2022-08-05T01:59:29.616Z,87.18
2022-08-05T02:02:00.978Z,88.06
2022-08-05T02:04:34.981Z,86.64
2022-08-05T02:07:04.232Z,86.24
2022-08-05T02:09:34.296Z,86.76
2022-08-05T02:12:17.119Z,85.64
2022-08-05T02:14:58.489Z,86.19
2022-08-05T02:18:28.163Z,86.47
2022-08-05T02:20:28.131Z,84.95
2022-08-05T02:23:03.168Z,83.60
2022-08-05T02:25:50.212Z,83.58
2022-08-05T02:28:31.122Z,81.24
2022-08-05T02:31:07.762Z,81.08
2022-08-05T02:33:48.814Z,80.96
2022-08-05T02:36:27.639Z,80.73
2022-08-05T02:39:00.654Z,80.59
2022-08-05T02:41:43.027Z,80.65
2022-08-05T02:44:18.032Z,83.19
2022-08-05T02:46:58.702Z,83.24
2022-08-05T02:49:36.130Z,83.64
2022-08-05T02:52:08.858Z,81.95
2022-08-05T02:54:37.896Z,81.18
2022-08-05T02:58:11.881Z,81.02
2022-08-05T03:00:01.770Z,81.41
2022-08-05T03:02:40.564Z,80.94
2022-08-05T03:05:12.393Z,79.77
2022-08-05T03:08:07.107Z,79.20
2022-08-05T03:10:28.961Z,77.72
2022-08-05T03:15:24.187Z,76.52
2022-08-05T03:17:56.147Z,78.26
2022-08-05T03:20:25.318Z,77.01
2022-08-05T03:22:57.323Z,77.90
2022-08-05T03:25:32.442Z,77.96
2022-08-05T03:28:14.107Z,77.32
2022-08-05T03:30:42.418Z,80.38
2022-08-05T03:33:10.021Z,81.11
2022-08-05T03:35:40.961Z,78.44
2022-08-05T03:38:14.353Z,78.31
2022-08-05T03:40:47.203Z,76.39
2022-08-05T03:43:58.270Z,75.11
2022-08-05T03:46:03.206Z,74.72
2022-08-05T03:48:35.083Z,74.20
2022-08-05T03:52:36.836Z,75.38
2022-08-05T03:55:49.952Z,77.31
2022-08-05T03:57:42.364Z,74.76
2022-08-05T04:00:15.964Z,72.91
2022-08-05T04:02:58.293Z,74.57
2022-08-05T04:05:34.632Z,71.90
2022-08-05T04:08:14.923Z,71.19
2022-08-05T04:11:01.871Z,69.33
2022-08-05T04:13:49.385Z,67.06
2022-08-05T04:16:24.847Z,67.16
2022-08-05T04:18:54.465Z,66.57
2022-08-05T04:22:08.467Z,66.23
2022-08-05T04:24:18.844Z,65.85
2022-08-05T04:26:46.840Z,65.04
2022-08-05T04:29:14.374Z,65.33
2022-08-05T04:31:41.494Z,65.15
2022-08-05T04:34:31.783Z,64.09
2022-08-05T04:36:57.128Z,63.09
2022-08-05T04:39:24.457Z,62.75
2022-08-05T04:41:54.406Z,62.56
2022-08-05T04:44:30.025Z,62.41
2022-08-05T04:47:09.483Z,63.16
2022-08-05T04:50:02.385Z,60.80
2022-08-05T04:52:34.495Z,60.74
2022-08-05T04:55:05.322Z,62.22
2022-08-05T04:57:47.799Z,61.80
2022-08-05T05:00:15.635Z,61.53
2022-08-05T05:02:43.839Z,60.33
2022-08-05T05:05:16.919Z,59.23
2022-08-05T05:08:01.657Z,59.89
2022-08-05T05:10:30.993Z,59.01
2022-08-05T05:13:01.915Z,57.34
2022-08-05T05:15:56.594Z,57.37
2022-08-05T05:18:31.516Z,56.73
2022-08-05T05:21:02.067Z,56.43
2022-08-05T05:23:39.236Z,56.81
2022-08-05T05:26:17.308Z,55.66
2022-08-05T05:28:44.992Z,54.80
2022-08-05T05:31:12.813Z,55.07
2022-08-05T05:33:59.551Z,54.50
2022-08-05T05:36:28.780Z,55.23
2022-08-05T05:38:57.544Z,54.33
2022-08-05T05:41:24.691Z,53.76
2022-08-05T05:43:57.048Z,53.33
2022-08-05T05:46:26.939Z,53.43
2022-08-05T05:48:53.928Z,52.80
2022-08-05T05:51:25.517Z,53.88
2022-08-05T05:53:57.522Z,51.77
2022-08-05T05:56:32.916Z,51.58
2022-08-05T05:59:08.075Z,50.97
2022-08-05T06:01:38.909Z,50.38
2022-08-05T06:04:12.790Z,50.24
2022-08-05T06:06:46.734Z,49.76
2022-08-05T06:09:18.062Z,49.83
2022-08-05T06:12:02.023Z,48.75
2022-08-05T06:14:33.382Z,48.20
2022-08-05T06:17:22.158Z,48.46
2022-08-05T06:19:57.129Z,48.19
2022-08-05T06:22:33.781Z,48.05
2022-08-05T06:25:01.203Z,47.64
2022-08-05T06:28:12.385Z,46.77
2022-08-05T06:30:35.059Z,46.40
2022-08-05T06:33:02.430Z,46.12
2022-08-05T06:36:07.370Z,45.44
2022-08-05T06:38:16.698Z,44.86
2022-08-05T06:40:44.870Z,45.49
2022-08-05T06:43:57.781Z,45.21
2022-08-05T06:46:04.189Z,44.76
2022-08-05T06:48:54.731Z,45.11
2022-08-05T06:51:29.390Z,44.53
2022-08-05T06:53:58.154Z,43.71
2022-08-05T06:56:26.384Z,43.57
2022-08-05T06:58:54.587Z,43.83
2022-08-05T07:01:21.892Z,42.13
2022-08-05T07:03:50.224Z,41.87
2022-08-05T07:06:19.261Z,42.18
2022-08-05T07:08:51.918Z,42.50
2022-08-05T07:11:25.635Z,41.43
2022-08-05T07:14:20.586Z,40.43
2022-08-05T07:18:01.693Z,40.62
2022-08-05T07:22:35.730Z,40.67
2022-08-05T07:25:22.833Z,40.35
2022-08-05T07:27:58.374Z,40.54
2022-08-05T07:30:38.473Z,38.26
2022-08-05T07:33:16.606Z,39.12
2022-08-05T07:36:04.135Z,38.30
2022-08-05T07:38:35.680Z,37.97
2022-08-05T07:41:35.026Z,38.18
2022-08-05T07:44:02.805Z,36.48
2022-08-05T07:46:31.994Z,37.11
2022-08-05T07:49:06.151Z,36.03
2022-08-05T07:51:40.642Z,36.17
2022-08-05T07:54:15.452Z,35.89
2022-08-05T07:57:00.760Z,35.09
2022-08-05T07:59:38.052Z,35.38
2022-08-05T08:02:15.459Z,34.94
2022-08-05T08:04:48.671Z,35.04
2022-08-05T08:07:22.224Z,35.13
2022-08-05T08:09:52.376Z,35.67
2022-08-05T08:12:35.674Z,33.88
2022-08-05T08:15:15.252Z,33.21
2022-08-05T08:17:52.598Z,33.78
2022-08-05T08:21:00.593Z,34.02
2022-08-05T08:24:02.726Z,33.75
2022-08-05T08:26:02.853Z,33.26
2022-08-05T08:28:36.468Z,32.33
2022-08-05T08:31:09.685Z,31.60
2022-08-05T08:33:42.011Z,31.94
2022-08-05T08:36:38.496Z,31.72
2022-08-05T08:38:57.842Z,31.89
2022-08-05T08:41:50.829Z,30.26
2022-08-05T08:45:25.060Z,30.18
2022-08-05T08:47:46.970Z,29.48
2022-08-05T08:50:14.688Z,30.05
2022-08-05T08:52:51.459Z,31.18
2022-08-05T08:55:32.089Z,30.10
2022-08-05T08:58:08.988Z,29.81
2022-08-05T09:00:36.109Z,29.71
2022-08-05T09:03:06.809Z,29.72
2022-08-05T09:05:38.752Z,30.62
2022-08-05T09:08:27.234Z,31.02
2022-08-05T09:10:54.807Z,30.51
2022-08-05T09:13:23.633Z,29.73
2022-08-05T09:15:51.572Z,30.86
2022-08-05T09:18:19.990Z,30.02
2022-08-05T09:20:47.253Z,30.72
2022-08-05T09:23:19.914Z,29.45
2022-08-05T09:26:06.331Z,30.63
2022-08-05T09:28:34.982Z,30.62
2022-08-05T09:31:23.353Z,31.66
2022-08-05T09:33:53.764Z,32.44
2022-08-05T09:36:21.448Z,32.86
2022-08-05T09:39:16.546Z,32.62
2022-08-05T09:42:04.231Z,32.27
2022-08-05T09:44:38.347Z,31.76
2022-08-05T09:47:24.442Z,32.14
2022-08-05T09:50:00.466Z,31.99
2022-08-05T09:52:34.324Z,31.67
2022-08-05T09:55:56.992Z,30.27
2022-08-05T09:57:54.726Z,30.60
2022-08-05T10:00:26.891Z,31.92
2022-08-05T10:02:58.446Z,32.30
2022-08-05T10:05:28.326Z,31.63
2022-08-05T10:08:36.107Z,29.22
2022-08-05T10:10:54.369Z,29.10
2022-08-05T10:13:44.132Z,31.00
2022-08-05T10:16:37.723Z,40.86
2022-08-05T10:19:10.060Z,43.51
2022-08-05T10:21:40.228Z,46.79
2022-08-05T10:24:13.477Z,47.54
2022-08-05T10:26:51.516Z,45.17
2022-08-05T10:29:23.858Z,45.41
2022-08-05T10:32:53.684Z,48.09
2022-08-05T10:35:01.138Z,49.46
2022-08-05T10:37:40.233Z,50.76
2022-08-05T10:40:28.282Z,48.78
2022-08-05T10:43:17.824Z,48.88
2022-08-05T10:46:06.207Z,50.14
2022-08-05T10:48:52.924Z,52.57
2022-08-05T10:51:29.120Z,50.93
2022-08-05T10:54:05.929Z,47.62
2022-08-05T10:56:56.118Z,48.67
2022-08-05T11:00:01.820Z,47.59
2022-08-05T11:02:38.158Z,48.35
2022-08-05T11:05:10.610Z,47.94
2022-08-05T11:08:04.777Z,49.75
2022-08-05T11:10:49.971Z,53.59
2022-08-05T11:13:55.105Z,54.73
2022-08-05T11:16:34.048Z,55.70
2022-08-05T11:20:10.753Z,56.85
2022-08-05T11:22:36.306Z,56.38
2022-08-05T11:26:04.684Z,51.42
2022-08-05T11:28:16.953Z,50.00
2022-08-05T11:30:58.503Z,49.72
2022-08-05T11:33:43.815Z,51.31
2022-08-05T11:36:34.617Z,54.12
2022-08-05T11:39:07.441Z,58.09
2022-08-05T11:42:01.405Z,57.01
2022-08-05T11:44:53.038Z,57.39
2022-08-05T11:47:49.763Z,54.88
2022-08-05T11:50:14.256Z,53.05
2022-08-05T11:52:44.067Z,55.46
2022-08-05T11:55:13.578Z,54.28
2022-08-05T11:58:11.053Z,55.72
2022-08-05T12:00:38.496Z,54.81
2022-08-05T12:03:28.875Z,56.15
2022-08-05T12:06:06.037Z,57.16
2022-08-05T12:08:51.303Z,55.99
2022-08-05T12:11:28.238Z,56.82
2022-08-05T12:14:10.849Z,56.40
2022-08-05T12:16:45.514Z,50.56
2022-08-05T12:20:25.368Z,51.70
2022-08-05T12:22:01.725Z,50.55
2022-08-05T12:24:30.082Z,48.07
2022-08-05T12:26:57.785Z,49.78
2022-08-05T12:29:26.707Z,50.11
2022-08-05T12:32:02.022Z,51.14
2022-08-05T12:34:32.310Z,51.42
2022-08-05T12:37:03.394Z,52.88
2022-08-05T12:39:37.241Z,55.58
2022-08-05T12:42:18.123Z,59.59
2022-08-05T12:44:47.828Z,54.56
2022-08-05T12:47:28.525Z,54.17
2022-08-05T12:50:03.669Z,55.75
2022-08-05T12:52:39.506Z,57.20
2022-08-05T12:55:32.966Z,54.49
2022-08-05T12:58:38.672Z,57.77
2022-08-05T13:02:01.801Z,55.38
2022-08-05T13:03:42.061Z,58.59
2022-08-05T13:06:17.827Z,64.33
2022-08-05T13:08:52.027Z,65.51
2022-08-05T13:12:01.086Z,61.13
2022-08-05T13:14:35.946Z,57.66
2022-08-05T13:17:10.476Z,56.00
2022-08-05T13:19:51.063Z,55.34
2022-08-05T13:22:29.146Z,56.06
2022-08-05T13:25:05.218Z,54.46
2022-08-05T13:27:40.930Z,55.81
2022-08-05T13:30:33.920Z,53.17
2022-08-05T13:33:01.277Z,53.83
2022-08-05T13:35:43.351Z,51.71
2022-08-05T13:38:28.629Z,48.11
2022-08-05T13:41:01.450Z,48.99
2022-08-05T13:43:44.271Z,50.90
2022-08-05T13:46:13.682Z,50.26
2022-08-05T13:48:57.520Z,51.16
2022-08-05T13:51:29.720Z,48.97
2022-08-05T13:54:11.872Z,51.00
2022-08-05T13:56:50.324Z,55.60
2022-08-05T13:59:27.036Z,52.45
2022-08-05T14:02:00.360Z,55.38
2022-08-05T14:04:51.960Z,55.99
2022-08-05T14:07:55.746Z,55.22
2022-08-05T14:10:09.657Z,57.83
2022-08-05T14:12:37.019Z,59.37
2022-08-05T14:16:03.976Z,64.14
2022-08-05T14:17:55.103Z,66.76
2022-08-05T14:20:27.996Z,64.64
2022-08-05T14:22:55.173Z,61.77
2022-08-05T14:25:28.272Z,61.18
2022-08-05T14:27:56.229Z,61.89
2022-08-05T14:30:26.656Z,63.44
2022-08-05T14:32:55.230Z,62.56
2022-08-05T14:35:23.955Z,61.90
2022-08-05T14:38:33.186Z,62.42
2022-08-05T14:40:58.243Z,61.06
2022-08-05T14:43:59.191Z,62.66
2022-08-05T14:46:12.266Z,64.12
2022-08-05T14:48:39.402Z,62.46
2022-08-05T14:51:06.393Z,62.09
2022-08-05T14:53:44.593Z,61.44
2022-08-05T14:56:13.374Z,61.55
2022-08-05T14:58:47.858Z,57.54
2022-08-05T15:01:37.090Z,59.76
2022-08-05T15:04:11.565Z,60.10
2022-08-05T15:06:40.543Z,58.59
2022-08-05T15:09:07.768Z,58.33
2022-08-05T15:11:51.650Z,57.82
2022-08-05T15:14:34.750Z,58.69
2022-08-05T15:17:09.897Z,57.25
2022-08-05T15:19:56.440Z,58.10
2022-08-05T15:22:27.249Z,56.89
2022-08-05T15:24:58.541Z,57.06
2022-08-05T15:27:25.964Z,56.00
2022-08-05T15:29:54.343Z,57.48
2022-08-05T15:32:27.493Z,57.24
2022-08-05T15:34:57.139Z,55.14
2022-08-05T15:38:34.199Z,58.78
2022-08-05T15:41:00.836Z,58.61
2022-08-05T15:43:12.664Z,59.46
2022-08-05T15:45:46.927Z,58.95
2022-08-05T15:48:15.326Z,61.97
2022-08-05T15:50:43.831Z,63.03
2022-08-05T15:53:13.714Z,62.53
2022-08-05T15:56:03.486Z,62.31
2022-08-05T15:58:29.391Z,64.18
2022-08-05T16:01:16.717Z,64.57
2022-08-05T16:03:48.565Z,63.80
2022-08-05T16:06:19.890Z,64.60
2022-08-05T16:08:50.994Z,63.07
2022-08-05T16:11:21.017Z,64.88
2022-08-05T16:14:05.976Z,68.31
2022-08-05T16:16:33.484Z,68.64
2022-08-05T16:19:00.404Z,67.00
2022-08-05T16:22:00.201Z,65.90
2022-08-05T16:24:40.047Z,63.99
2022-08-05T16:27:02.878Z,66.16
2022-08-05T16:29:37.676Z,68.69
2022-08-05T16:32:09.492Z,71.27
2022-08-05T16:34:41.764Z,70.81
2022-08-05T16:38:03.118Z,71.18
2022-08-05T16:40:04.657Z,71.54
2022-08-05T16:42:35.472Z,70.81
2022-08-05T16:46:02.734Z,69.44
2022-08-05T16:47:53.405Z,70.39
2022-08-05T16:50:21.208Z,72.57
2022-08-05T16:52:49.077Z,75.68
2022-08-05T16:55:16.874Z,75.44
2022-08-05T16:57:59.899Z,78.20
2022-08-05T17:00:34.358Z,78.20
2022-08-05T17:03:03.614Z,76.84
2022-08-05T17:05:32.366Z,77.76
2022-08-05T17:08:04.215Z,77.17
2022-08-05T17:10:31.158Z,78.78
2022-08-05T17:12:58.412Z,79.88
2022-08-05T17:15:47.760Z,79.96
2022-08-05T17:18:14.288Z,80.31
2022-08-05T17:20:42.545Z,79.34
2022-08-05T17:24:04.827Z,78.63
2022-08-05T17:25:58.374Z,79.86
2022-08-05T17:28:26.214Z,82.39
2022-08-05T17:30:56.020Z,82.84
2022-08-05T17:33:23.414Z,84.71
2022-08-05T17:36:07.831Z,83.90
2022-08-05T17:38:36.195Z,83.01
2022-08-05T17:41:03.255Z,84.15
2022-08-05T17:43:53.007Z,82.68
2022-08-05T17:46:18.383Z,83.23
2022-08-05T17:48:47.667Z,83.13
2022-08-05T17:51:21.753Z,83.80
2022-08-05T17:53:50.746Z,84.64
2022-08-05T17:56:22.583Z,84.60
2022-08-05T17:58:51.037Z,85.64
2022-08-05T18:01:18.594Z,84.24
2022-08-05T18:03:59.449Z,83.59
2022-08-05T18:06:31.659Z,82.76
2022-08-05T18:08:59.425Z,80.68
2022-08-05T18:11:32.523Z,79.59
2022-08-05T18:14:07.472Z,80.58
2022-08-05T18:16:51.001Z,83.12
2022-08-05T18:19:22.956Z,84.11
2022-08-05T18:22:08.396Z,84.85
2022-08-05T18:24:37.958Z,81.60
2022-08-05T18:27:12.307Z,79.51
2022-08-05T18:29:41.455Z,77.99
2022-08-05T18:32:12.905Z,76.09
2022-08-05T18:34:42.959Z,75.89
2022-08-05T18:37:12.188Z,75.21
2022-08-05T18:40:31.712Z,76.73
2022-08-05T18:42:27.221Z,77.33
2022-08-05T18:44:56.229Z,77.76
2022-08-05T18:47:26.575Z,76.79
2022-08-05T18:50:15.433Z,77.33
2022-08-05T18:52:51.377Z,76.65
2022-08-05T18:55:20.377Z,76.85
2022-08-05T18:57:53.506Z,76.14
2022-08-05T19:00:27.084Z,76.80
2022-08-05T19:02:57.555Z,76.88
2022-08-05T19:06:12.842Z,76.78
2022-08-05T19:08:19.971Z,77.04
2022-08-05T19:10:50.133Z,76.71
2022-08-05T19:13:17.951Z,78.54
2022-08-05T19:15:58.351Z,78.62
2022-08-05T19:18:27.665Z,78.60
2022-08-05T19:20:55.846Z,79.46
2022-08-05T19:24:05.424Z,80.05
2022-08-05T19:26:11.158Z,80.81
2022-08-05T19:28:43.181Z,80.83
2022-08-05T19:31:13.358Z,80.86
2022-08-05T19:33:55.658Z,80.10
2022-08-05T19:36:29.356Z,82.14
2022-08-05T19:39:01.336Z,81.58
2022-08-05T19:41:58.345Z,84.29
2022-08-05T19:44:21.693Z,83.68
2022-08-05T19:46:50.545Z,83.26
2022-08-05T19:49:18.133Z,82.28
2022-08-05T19:52:09.202Z,81.40
2022-08-05T19:54:37.235Z,79.61
2022-08-05T19:57:10.616Z,81.61
2022-08-05T19:59:59.391Z,82.69
2022-08-05T20:02:31.263Z,83.97
2022-08-05T20:04:59.731Z,85.07
2022-08-05T20:07:47.244Z,85.45
2022-08-05T20:10:16.808Z,85.86
2022-08-05T20:12:45.981Z,84.59
2022-08-05T20:15:47.885Z,82.70
2022-08-05T20:18:09.797Z,80.00
2022-08-05T20:20:37.753Z,80.46
2022-08-05T20:23:06.151Z,80.91
2022-08-05T20:25:40.160Z,80.51
2022-08-05T20:28:13.789Z,82.41
2022-08-05T20:30:42.034Z,82.97
2022-08-05T20:33:09.550Z,85.52
2022-08-05T20:35:40.494Z,86.35
2022-08-05T20:38:20.115Z,86.24
2022-08-05T20:40:55.462Z,84.65
2022-08-05T20:43:57.405Z,84.51
2022-08-05T20:46:18.402Z,84.57
2022-08-05T20:48:52.267Z,82.08
2022-08-05T20:51:19.304Z,84.01
2022-08-05T20:53:56.487Z,86.48
2022-08-05T20:56:31.870Z,89.80
2022-08-05T20:59:14.137Z,89.27
2022-08-05T21:01:46.771Z,87.84
2022-08-05T21:04:14.232Z,88.07
2022-08-05T21:06:45.763Z,88.83
2022-08-05T21:09:14.502Z,88.38
2022-08-05T21:12:06.823Z,88.14
2022-08-05T21:14:35.163Z,88.48
2022-08-05T21:17:04.866Z,86.31
2022-08-05T21:19:46.807Z,84.76
2022-08-05T21:22:18.410Z,87.08
2022-08-05T21:24:48.973Z,87.73
2022-08-05T21:27:25.507Z,83.59
2022-08-05T21:29:56.394Z,86.46
2022-08-05T21:32:26.935Z,85.66
2022-08-05T21:35:17.699Z,83.66
2022-08-05T21:37:52.836Z,85.46
2022-08-05T21:40:21.039Z,86.11
2022-08-05T21:42:48.204Z,86.67
2022-08-05T21:45:24.068Z,88.01
2022-08-05T21:47:56.846Z,89.33
2022-08-05T21:50:28.232Z,88.86
2022-08-05T21:52:59.122Z,90.00
2022-08-05T21:56:04.156Z,90.89
2022-08-05T21:58:24.839Z,90.30
2022-08-05T22:00:59.980Z,88.50
2022-08-05T22:03:48.444Z,85.66
2022-08-05T22:06:22.901Z,87.61
2022-08-05T22:09:02.380Z,87.70
2022-08-05T22:11:41.587Z,87.53
2022-08-05T22:14:37.178Z,89.31
2022-08-05T22:17:03.874Z,90.65
2022-08-05T22:20:01.230Z,88.59
2022-08-05T22:22:27.375Z,86.91
2022-08-05T22:25:21.001Z,87.09
2022-08-05T22:28:08.676Z,87.93
2022-08-05T22:30:43.940Z,88.10
2022-08-05T22:33:55.701Z,87.38
2022-08-05T22:36:10.237Z,86.35
2022-08-05T22:38:42.799Z,86.90
2022-08-05T22:41:10.578Z,84.51
2022-08-05T22:43:40.805Z,81.18
2022-08-05T22:46:13.295Z,79.20
2022-08-05T22:48:48.086Z,78.25
2022-08-05T22:51:22.826Z,79.23
2022-08-05T22:53:54.943Z,79.22
2022-08-05T22:56:29.699Z,80.10
2022-08-05T22:59:00.048Z,79.11
2022-08-05T23:01:50.946Z,79.25
2022-08-05T23:04:17.763Z,79.19
2022-08-05T23:06:44.779Z,80.09
2022-08-05T23:09:24.788Z,79.85
2022-08-05T23:11:55.025Z,80.20
2022-08-05T23:14:22.750Z,79.37
2022-08-05T23:17:18.582Z,78.75
2022-08-05T23:19:56.507Z,77.96
2022-08-05T23:22:27.446Z,80.08
2022-08-05T23:24:55.625Z,81.09
2022-08-05T23:27:24.071Z,82.36
2022-08-05T23:29:51.314Z,81.30
2022-08-05T23:32:23.033Z,81.48
2022-08-05T23:34:50.918Z,81.68
2022-08-05T23:37:18.460Z,77.70
2022-08-05T23:39:54.608Z,77.55
2022-08-05T23:42:23.501Z,74.05
2022-08-05T23:44:57.073Z,75.67
2022-08-05T23:47:25.317Z,76.56
2022-08-05T23:49:55.757Z,75.95
2022-08-05T23:52:27.826Z,75.45
2022-08-05T23:55:09.025Z,75.22
2022-08-05T23:57:36.685Z,75.15
